sensor_id;sensor_type;location;lat;lon;timestamp;P1;durP1;ratioP1;P2;durP2;ratioP2
22435;SDS011;11385;50.822;4.324;2022-12-16T00:02:06;70.72;;;39.95;;
22435;SDS011;11385;50.822;4.324;2022-12-16T00:04:33;60.85;;;36.83;;
22435;SDS011;11385;50.822;4.324;2022-12-16T00:06:59;61.13;;;37.70;;
22435;SDS011;11385;50.822;4.324;2022-12-16T00:09:26;66.45;;;38.13;;
22435;SDS011;11385;50.822;4.324;2022-12-16T00:11:53;61.48;;;37.45;;
22435;SDS011;11385;50.822;4.324;2022-12-16T00:14:19;59.13;;;36.33;;
22435;SDS011;11385;50.822;4.324;2022-12-16T00:16:46;60.38;;;38.05;;
22435;SDS011;11385;50.822;4.324;2022-12-16T00:19:13;61.88;;;35.38;;
22435;SDS011;11385;50.822;4.324;2022-12-16T00:21:39;53.68;;;33.50;;
22435;SDS011;11385;50.822;4.324;2022-12-16T00:24:07;58.30;;;36.15;;
22435;SDS011;11385;50.822;4.324;2022-12-16T00:26:34;57.05;;;35.80;;
22435;SDS011;11385;50.822;4.324;2022-12-16T00:29:00;58.50;;;35.45;;
22435;SDS011;11385;50.822;4.324;2022-12-16T00:31:29;54.27;;;34.95;;
22435;SDS011;11385;50.822;4.324;2022-12-16T00:33:56;65.45;;;38.73;;
22435;SDS011;11385;50.822;4.324;2022-12-16T00:36:24;65.22;;;39.67;;
22435;SDS011;11385;50.822;4.324;2022-12-16T00:38:51;67.10;;;41.77;;
22435;SDS011;11385;50.822;4.324;2022-12-16T00:41:17;64.45;;;39.23;;
22435;SDS011;11385;50.822;4.324;2022-12-16T00:43:44;57.80;;;38.83;;
22435;SDS011;11385;50.822;4.324;2022-12-16T00:46:11;63.23;;;38.98;;
22435;SDS011;11385;50.822;4.324;2022-12-16T00:48:37;67.08;;;40.40;;
22435;SDS011;11385;50.822;4.324;2022-12-16T00:51:04;66.05;;;39.53;;
22435;SDS011;11385;50.822;4.324;2022-12-16T00:53:31;65.22;;;38.25;;
22435;SDS011;11385;50.822;4.324;2022-12-16T00:56:01;64.87;;;38.10;;
22435;SDS011;11385;50.822;4.324;2022-12-16T00:58:31;54.90;;;36.05;;
22435;SDS011;11385;50.822;4.324;2022-12-16T01:00:57;58.40;;;34.55;;
22435;SDS011;11385;50.822;4.324;2022-12-16T01:03:24;51.63;;;32.13;;
22435;SDS011;11385;50.822;4.324;2022-12-16T01:05:51;49.45;;;30.55;;
22435;SDS011;11385;50.822;4.324;2022-12-16T01:08:18;53.70;;;32.17;;
22435;SDS011;11385;50.822;4.324;2022-12-16T01:10:49;50.50;;;32.90;;
22435;SDS011;11385;50.822;4.324;2022-12-16T01:13:21;55.92;;;33.38;;
22435;SDS011;11385;50.822;4.324;2022-12-16T01:15:49;48.05;;;29.32;;
22435;SDS011;11385;50.822;4.324;2022-12-16T01:18:16;50.43;;;31.65;;
22435;SDS011;11385;50.822;4.324;2022-12-16T01:20:43;52.80;;;32.13;;
22435;SDS011;11385;50.822;4.324;2022-12-16T01:23:10;51.90;;;30.12;;
22435;SDS011;11385;50.822;4.324;2022-12-16T01:25:37;50.12;;;29.50;;
22435;SDS011;11385;50.822;4.324;2022-12-16T01:28:03;53.00;;;31.65;;
22435;SDS011;11385;50.822;4.324;2022-12-16T01:30:30;57.60;;;31.07;;
22435;SDS011;11385;50.822;4.324;2022-12-16T01:32:57;53.25;;;31.60;;
22435;SDS011;11385;50.822;4.324;2022-12-16T01:35:23;53.78;;;31.00;;
22435;SDS011;11385;50.822;4.324;2022-12-16T01:37:50;51.10;;;29.95;;
22435;SDS011;11385;50.822;4.324;2022-12-16T01:40:18;46.15;;;29.07;;
22435;SDS011;11385;50.822;4.324;2022-12-16T01:42:46;46.28;;;29.40;;
22435;SDS011;11385;50.822;4.324;2022-12-16T01:47:50;47.65;;;29.77;;
22435;SDS011;11385;50.822;4.324;2022-12-16T01:50:19;40.12;;;22.87;;
22435;SDS011;11385;50.822;4.324;2022-12-16T01:52:48;48.20;;;30.25;;
22435;SDS011;11385;50.822;4.324;2022-12-16T01:55:19;35.70;;;23.57;;
22435;SDS011;11385;50.822;4.324;2022-12-16T01:57:52;49.18;;;29.92;;
22435;SDS011;11385;50.822;4.324;2022-12-16T02:00:20;45.00;;;29.05;;
22435;SDS011;11385;50.822;4.324;2022-12-16T02:02:47;46.92;;;30.88;;
22435;SDS011;11385;50.822;4.324;2022-12-16T02:05:16;47.78;;;29.23;;
22435;SDS011;11385;50.822;4.324;2022-12-16T02:10:20;48.52;;;30.15;;
22435;SDS011;11385;50.822;4.324;2022-12-16T02:15:51;45.83;;;28.15;;
22435;SDS011;11385;50.822;4.324;2022-12-16T02:18:54;46.77;;;28.35;;
22435;SDS011;11385;50.822;4.324;2022-12-16T02:24:40;42.83;;;27.25;;
22435;SDS011;11385;50.822;4.324;2022-12-16T02:27:04;43.70;;;26.07;;
22435;SDS011;11385;50.822;4.324;2022-12-16T02:30:07;48.28;;;28.35;;
22435;SDS011;11385;50.822;4.324;2022-12-16T02:37:53;42.30;;;28.27;;
22435;SDS011;11385;50.822;4.324;2022-12-16T02:40:27;47.50;;;27.53;;
22435;SDS011;11385;50.822;4.324;2022-12-16T02:43:12;45.88;;;26.97;;
22435;SDS011;11385;50.822;4.324;2022-12-16T02:45:44;42.10;;;25.95;;
22435;SDS011;11385;50.822;4.324;2022-12-16T02:48:12;43.45;;;26.77;;
22435;SDS011;11385;50.822;4.324;2022-12-16T02:50:39;44.50;;;26.82;;
22435;SDS011;11385;50.822;4.324;2022-12-16T02:53:10;44.73;;;26.65;;
22435;SDS011;11385;50.822;4.324;2022-12-16T02:55:49;45.43;;;26.05;;
22435;SDS011;11385;50.822;4.324;2022-12-16T02:58:34;46.18;;;25.77;;
22435;SDS011;11385;50.822;4.324;2022-12-16T03:01:05;43.30;;;26.05;;
22435;SDS011;11385;50.822;4.324;2022-12-16T03:03:42;39.55;;;26.48;;
22435;SDS011;11385;50.822;4.324;2022-12-16T03:06:10;41.77;;;25.72;;
22435;SDS011;11385;50.822;4.324;2022-12-16T03:08:41;47.38;;;20.23;;
22435;SDS011;11385;50.822;4.324;2022-12-16T03:11:11;31.68;;;19.23;;
22435;SDS011;11385;50.822;4.324;2022-12-16T03:13:39;41.95;;;26.00;;
22435;SDS011;11385;50.822;4.324;2022-12-16T03:16:10;43.23;;;26.10;;
22435;SDS011;11385;50.822;4.324;2022-12-16T03:18:39;47.13;;;25.05;;
22435;SDS011;11385;50.822;4.324;2022-12-16T03:21:09;44.83;;;27.10;;
22435;SDS011;11385;50.822;4.324;2022-12-16T03:23:39;45.23;;;26.12;;
22435;SDS011;11385;50.822;4.324;2022-12-16T03:26:11;43.73;;;26.20;;
22435;SDS011;11385;50.822;4.324;2022-12-16T03:28:43;48.23;;;27.10;;
22435;SDS011;11385;50.822;4.324;2022-12-16T03:31:17;41.68;;;26.55;;
22435;SDS011;11385;50.822;4.324;2022-12-16T03:33:51;46.05;;;27.27;;
22435;SDS011;11385;50.822;4.324;2022-12-16T03:36:20;42.98;;;27.27;;
22435;SDS011;11385;50.822;4.324;2022-12-16T03:38:50;47.33;;;27.05;;
22435;SDS011;11385;50.822;4.324;2022-12-16T03:41:19;45.35;;;27.60;;
22435;SDS011;11385;50.822;4.324;2022-12-16T03:43:47;45.35;;;26.27;;
22435;SDS011;11385;50.822;4.324;2022-12-16T03:46:15;45.60;;;27.93;;
22435;SDS011;11385;50.822;4.324;2022-12-16T03:48:44;45.05;;;28.38;;
22435;SDS011;11385;50.822;4.324;2022-12-16T03:51:12;45.25;;;27.22;;
22435;SDS011;11385;50.822;4.324;2022-12-16T03:53:40;53.60;;;27.55;;
22435;SDS011;11385;50.822;4.324;2022-12-16T03:56:07;43.38;;;26.37;;
22435;SDS011;11385;50.822;4.324;2022-12-16T03:58:34;45.52;;;27.30;;
22435;SDS011;11385;50.822;4.324;2022-12-16T04:01:02;43.70;;;27.20;;
22435;SDS011;11385;50.822;4.324;2022-12-16T04:03:29;49.60;;;27.82;;
22435;SDS011;11385;50.822;4.324;2022-12-16T04:05:56;42.50;;;29.02;;
22435;SDS011;11385;50.822;4.324;2022-12-16T04:08:22;45.00;;;26.62;;
22435;SDS011;11385;50.822;4.324;2022-12-16T04:10:50;47.15;;;27.87;;
22435;SDS011;11385;50.822;4.324;2022-12-16T04:13:23;44.65;;;27.02;;
22435;SDS011;11385;50.822;4.324;2022-12-16T04:15:56;43.00;;;25.97;;
22435;SDS011;11385;50.822;4.324;2022-12-16T04:18:28;47.00;;;27.10;;
22435;SDS011;11385;50.822;4.324;2022-12-16T04:21:01;41.35;;;26.17;;
22435;SDS011;11385;50.822;4.324;2022-12-16T04:23:34;44.15;;;27.32;;
22435;SDS011;11385;50.822;4.324;2022-12-16T04:26:08;44.65;;;26.42;;
22435;SDS011;11385;50.822;4.324;2022-12-16T04:28:35;44.60;;;28.73;;
22435;SDS011;11385;50.822;4.324;2022-12-16T04:31:01;46.77;;;27.67;;
22435;SDS011;11385;50.822;4.324;2022-12-16T04:33:28;46.45;;;28.38;;
22435;SDS011;11385;50.822;4.324;2022-12-16T04:36:01;40.45;;;26.37;;
22435;SDS011;11385;50.822;4.324;2022-12-16T04:38:33;47.20;;;26.17;;
22435;SDS011;11385;50.822;4.324;2022-12-16T04:41:05;49.18;;;26.77;;
22435;SDS011;11385;50.822;4.324;2022-12-16T04:43:38;45.45;;;26.82;;
22435;SDS011;11385;50.822;4.324;2022-12-16T04:46:11;42.80;;;28.10;;
22435;SDS011;11385;50.822;4.324;2022-12-16T04:48:43;47.98;;;27.93;;
22435;SDS011;11385;50.822;4.324;2022-12-16T04:51:15;44.20;;;26.17;;
22435;SDS011;11385;50.822;4.324;2022-12-16T04:53:47;44.98;;;27.77;;
22435;SDS011;11385;50.822;4.324;2022-12-16T04:56:20;45.65;;;27.32;;
22435;SDS011;11385;50.822;4.324;2022-12-16T04:58:53;48.50;;;30.00;;
22435;SDS011;11385;50.822;4.324;2022-12-16T05:01:25;46.83;;;26.85;;
22435;SDS011;11385;50.822;4.324;2022-12-16T05:03:57;47.05;;;28.42;;
22435;SDS011;11385;50.822;4.324;2022-12-16T05:06:30;47.78;;;28.15;;
22435;SDS011;11385;50.822;4.324;2022-12-16T05:09:02;49.55;;;28.92;;
22435;SDS011;11385;50.822;4.324;2022-12-16T05:11:36;48.78;;;26.40;;
22435;SDS011;11385;50.822;4.324;2022-12-16T05:14:08;51.77;;;28.35;;
22435;SDS011;11385;50.822;4.324;2022-12-16T05:16:40;49.30;;;29.37;;
22435;SDS011;11385;50.822;4.324;2022-12-16T05:19:12;49.50;;;28.25;;
22435;SDS011;11385;50.822;4.324;2022-12-16T05:21:45;44.40;;;26.75;;
22435;SDS011;11385;50.822;4.324;2022-12-16T05:24:17;54.25;;;29.23;;
22435;SDS011;11385;50.822;4.324;2022-12-16T05:26:50;52.15;;;30.08;;
22435;SDS011;11385;50.822;4.324;2022-12-16T05:29:22;50.80;;;29.77;;
22435;SDS011;11385;50.822;4.324;2022-12-16T05:31:54;49.95;;;28.02;;
22435;SDS011;11385;50.822;4.324;2022-12-16T05:34:26;56.73;;;30.57;;
22435;SDS011;11385;50.822;4.324;2022-12-16T05:36:59;52.60;;;29.18;;
22435;SDS011;11385;50.822;4.324;2022-12-16T05:39:31;50.85;;;28.42;;
22435;SDS011;11385;50.822;4.324;2022-12-16T05:42:03;52.45;;;29.12;;
22435;SDS011;11385;50.822;4.324;2022-12-16T05:44:36;49.50;;;28.85;;
22435;SDS011;11385;50.822;4.324;2022-12-16T05:47:08;57.83;;;28.57;;
22435;SDS011;11385;50.822;4.324;2022-12-16T05:49:41;52.30;;;28.75;;
22435;SDS011;11385;50.822;4.324;2022-12-16T05:52:13;51.92;;;28.65;;
22435;SDS011;11385;50.822;4.324;2022-12-16T05:54:45;48.85;;;29.15;;
22435;SDS011;11385;50.822;4.324;2022-12-16T05:57:18;54.25;;;28.25;;
22435;SDS011;11385;50.822;4.324;2022-12-16T05:59:50;51.85;;;29.37;;
22435;SDS011;11385;50.822;4.324;2022-12-16T06:02:22;50.63;;;28.55;;
22435;SDS011;11385;50.822;4.324;2022-12-16T06:04:55;55.03;;;26.68;;
22435;SDS011;11385;50.822;4.324;2022-12-16T06:07:27;49.38;;;28.05;;
22435;SDS011;11385;50.822;4.324;2022-12-16T06:09:59;50.08;;;29.15;;
22435;SDS011;11385;50.822;4.324;2022-12-16T06:12:32;55.28;;;30.65;;
22435;SDS011;11385;50.822;4.324;2022-12-16T06:15:04;51.95;;;28.45;;
22435;SDS011;11385;50.822;4.324;2022-12-16T06:17:40;48.85;;;27.95;;
22435;SDS011;11385;50.822;4.324;2022-12-16T06:20:16;50.63;;;27.80;;
22435;SDS011;11385;50.822;4.324;2022-12-16T06:22:50;49.00;;;27.17;;
22435;SDS011;11385;50.822;4.324;2022-12-16T06:25:23;44.18;;;25.95;;
22435;SDS011;11385;50.822;4.324;2022-12-16T06:27:55;48.10;;;26.42;;
22435;SDS011;11385;50.822;4.324;2022-12-16T06:30:28;45.45;;;26.82;;
22435;SDS011;11385;50.822;4.324;2022-12-16T06:33:00;47.55;;;27.93;;
22435;SDS011;11385;50.822;4.324;2022-12-16T06:35:32;45.38;;;25.37;;
22435;SDS011;11385;50.822;4.324;2022-12-16T06:38:05;44.08;;;27.45;;
22435;SDS011;11385;50.822;4.324;2022-12-16T06:40:37;47.05;;;26.07;;
22435;SDS011;11385;50.822;4.324;2022-12-16T06:43:09;51.92;;;26.52;;
22435;SDS011;11385;50.822;4.324;2022-12-16T06:45:42;41.85;;;24.67;;
22435;SDS011;11385;50.822;4.324;2022-12-16T06:48:14;46.92;;;27.30;;
22435;SDS011;11385;50.822;4.324;2022-12-16T06:50:47;46.63;;;24.43;;
22435;SDS011;11385;50.822;4.324;2022-12-16T06:53:19;40.45;;;23.67;;
22435;SDS011;11385;50.822;4.324;2022-12-16T06:55:51;47.00;;;24.60;;
22435;SDS011;11385;50.822;4.324;2022-12-16T06:58:23;41.60;;;23.77;;
22435;SDS011;11385;50.822;4.324;2022-12-16T07:00:56;41.83;;;24.45;;
22435;SDS011;11385;50.822;4.324;2022-12-16T07:03:28;41.05;;;23.05;;
22435;SDS011;11385;50.822;4.324;2022-12-16T07:06:01;38.33;;;22.35;;
22435;SDS011;11385;50.822;4.324;2022-12-16T07:08:33;42.70;;;23.47;;
22435;SDS011;11385;50.822;4.324;2022-12-16T07:11:05;49.80;;;26.90;;
22435;SDS011;11385;50.822;4.324;2022-12-16T07:13:38;53.40;;;33.10;;
22435;SDS011;11385;50.822;4.324;2022-12-16T07:16:10;45.00;;;25.82;;
22435;SDS011;11385;50.822;4.324;2022-12-16T07:18:42;47.95;;;27.48;;
22435;SDS011;11385;50.822;4.324;2022-12-16T07:21:14;44.18;;;24.57;;
22435;SDS011;11385;50.822;4.324;2022-12-16T07:23:47;45.20;;;25.72;;
22435;SDS011;11385;50.822;4.324;2022-12-16T07:26:20;42.48;;;25.85;;
22435;SDS011;11385;50.822;4.324;2022-12-16T07:28:52;41.45;;;24.10;;
22435;SDS011;11385;50.822;4.324;2022-12-16T07:31:24;37.98;;;22.75;;
22435;SDS011;11385;50.822;4.324;2022-12-16T07:33:56;36.58;;;20.77;;
22435;SDS011;11385;50.822;4.324;2022-12-16T07:36:29;38.95;;;23.22;;
22435;SDS011;11385;50.822;4.324;2022-12-16T07:39:01;38.28;;;22.13;;
22435;SDS011;11385;50.822;4.324;2022-12-16T07:41:33;36.25;;;22.62;;
22435;SDS011;11385;50.822;4.324;2022-12-16T07:44:06;35.85;;;21.12;;
22435;SDS011;11385;50.822;4.324;2022-12-16T07:46:49;36.30;;;21.75;;
22435;SDS011;11385;50.822;4.324;2022-12-16T07:49:21;35.78;;;22.02;;
22435;SDS011;11385;50.822;4.324;2022-12-16T07:51:54;37.25;;;21.75;;
22435;SDS011;11385;50.822;4.324;2022-12-16T07:54:26;38.58;;;21.77;;
22435;SDS011;11385;50.822;4.324;2022-12-16T07:56:58;39.23;;;22.67;;
22435;SDS011;11385;50.822;4.324;2022-12-16T07:59:31;34.50;;;21.42;;
22435;SDS011;11385;50.822;4.324;2022-12-16T08:02:03;35.28;;;22.67;;
22435;SDS011;11385;50.822;4.324;2022-12-16T08:04:35;36.35;;;22.60;;
22435;SDS011;11385;50.822;4.324;2022-12-16T08:07:08;35.83;;;21.52;;
22435;SDS011;11385;50.822;4.324;2022-12-16T08:09:40;33.42;;;22.42;;
22435;SDS011;11385;50.822;4.324;2022-12-16T08:12:12;35.20;;;20.72;;
22435;SDS011;11385;50.822;4.324;2022-12-16T08:14:45;36.40;;;22.40;;
22435;SDS011;11385;50.822;4.324;2022-12-16T08:17:17;32.67;;;20.40;;
22435;SDS011;11385;50.822;4.324;2022-12-16T08:19:49;35.13;;;20.57;;
22435;SDS011;11385;50.822;4.324;2022-12-16T08:22:21;35.55;;;21.65;;
22435;SDS011;11385;50.822;4.324;2022-12-16T08:24:54;38.28;;;22.65;;
22435;SDS011;11385;50.822;4.324;2022-12-16T08:27:26;34.15;;;21.40;;
22435;SDS011;11385;50.822;4.324;2022-12-16T08:29:58;41.30;;;23.05;;
22435;SDS011;11385;50.822;4.324;2022-12-16T08:32:30;36.38;;;24.20;;
22435;SDS011;11385;50.822;4.324;2022-12-16T08:35:03;37.30;;;21.60;;
22435;SDS011;11385;50.822;4.324;2022-12-16T08:37:35;34.83;;;21.17;;
22435;SDS011;11385;50.822;4.324;2022-12-16T08:40:08;37.13;;;22.00;;
22435;SDS011;11385;50.822;4.324;2022-12-16T08:42:40;35.15;;;21.40;;
22435;SDS011;11385;50.822;4.324;2022-12-16T08:45:13;33.90;;;21.62;;
22435;SDS011;11385;50.822;4.324;2022-12-16T08:47:45;33.98;;;21.45;;
22435;SDS011;11385;50.822;4.324;2022-12-16T08:50:18;37.53;;;21.52;;
22435;SDS011;11385;50.822;4.324;2022-12-16T08:52:50;36.80;;;21.82;;
22435;SDS011;11385;50.822;4.324;2022-12-16T08:55:22;36.23;;;23.07;;
22435;SDS011;11385;50.822;4.324;2022-12-16T08:57:54;35.73;;;23.10;;
22435;SDS011;11385;50.822;4.324;2022-12-16T09:00:27;34.38;;;21.97;;
22435;SDS011;11385;50.822;4.324;2022-12-16T09:02:59;37.10;;;22.27;;
22435;SDS011;11385;50.822;4.324;2022-12-16T09:05:32;35.25;;;22.80;;
22435;SDS011;11385;50.822;4.324;2022-12-16T09:08:04;33.15;;;21.62;;
22435;SDS011;11385;50.822;4.324;2022-12-16T09:10:36;34.15;;;21.62;;
22435;SDS011;11385;50.822;4.324;2022-12-16T09:13:11;33.23;;;21.40;;
22435;SDS011;11385;50.822;4.324;2022-12-16T09:15:45;35.88;;;20.95;;
22435;SDS011;11385;50.822;4.324;2022-12-16T09:18:17;33.73;;;21.02;;
22435;SDS011;11385;50.822;4.324;2022-12-16T09:20:50;35.55;;;20.90;;
22435;SDS011;11385;50.822;4.324;2022-12-16T09:23:22;41.48;;;23.30;;
22435;SDS011;11385;50.822;4.324;2022-12-16T09:25:55;37.03;;;21.37;;
22435;SDS011;11385;50.822;4.324;2022-12-16T09:28:27;38.05;;;22.13;;
22435;SDS011;11385;50.822;4.324;2022-12-16T09:30:59;68.85;;;37.40;;
22435;SDS011;11385;50.822;4.324;2022-12-16T09:33:31;39.95;;;21.93;;
22435;SDS011;11385;50.822;4.324;2022-12-16T09:36:04;39.10;;;23.05;;
22435;SDS011;11385;50.822;4.324;2022-12-16T09:38:36;37.58;;;22.37;;
22435;SDS011;11385;50.822;4.324;2022-12-16T09:44:22;36.80;;;22.65;;
22435;SDS011;11385;50.822;4.324;2022-12-16T09:47:11;37.85;;;21.23;;
22435;SDS011;11385;50.822;4.324;2022-12-16T09:49:46;40.67;;;21.82;;
22435;SDS011;11385;50.822;4.324;2022-12-16T09:52:20;33.73;;;19.70;;
22435;SDS011;11385;50.822;4.324;2022-12-16T09:54:54;39.50;;;21.68;;
22435;SDS011;11385;50.822;4.324;2022-12-16T09:57:39;37.83;;;21.35;;
22435;SDS011;11385;50.822;4.324;2022-12-16T10:00:16;33.45;;;20.62;;
22435;SDS011;11385;50.822;4.324;2022-12-16T10:02:48;37.93;;;22.13;;
22435;SDS011;11385;50.822;4.324;2022-12-16T10:05:23;37.08;;;21.65;;
22435;SDS011;11385;50.822;4.324;2022-12-16T10:08:17;35.08;;;20.55;;
22435;SDS011;11385;50.822;4.324;2022-12-16T10:10:54;35.92;;;21.68;;
22435;SDS011;11385;50.822;4.324;2022-12-16T10:13:47;37.78;;;22.10;;
22435;SDS011;11385;50.822;4.324;2022-12-16T10:20:11;37.75;;;23.40;;
22435;SDS011;11385;50.822;4.324;2022-12-16T10:22:00;37.95;;;23.75;;
22435;SDS011;11385;50.822;4.324;2022-12-16T10:24:42;37.03;;;22.80;;
22435;SDS011;11385;50.822;4.324;2022-12-16T10:27:16;44.60;;;23.27;;
22435;SDS011;11385;50.822;4.324;2022-12-16T10:29:52;38.55;;;21.75;;
22435;SDS011;11385;50.822;4.324;2022-12-16T10:32:39;39.60;;;22.87;;
22435;SDS011;11385;50.822;4.324;2022-12-16T10:35:19;37.58;;;21.60;;
22435;SDS011;11385;50.822;4.324;2022-12-16T10:37:55;41.80;;;23.80;;
22435;SDS011;11385;50.822;4.324;2022-12-16T10:40:29;37.38;;;22.80;;
22435;SDS011;11385;50.822;4.324;2022-12-16T10:43:04;37.73;;;22.48;;
22435;SDS011;11385;50.822;4.324;2022-12-16T10:45:49;40.40;;;22.17;;
22435;SDS011;11385;50.822;4.324;2022-12-16T10:48:25;38.45;;;22.50;;
22435;SDS011;11385;50.822;4.324;2022-12-16T10:50:59;38.45;;;22.90;;
22435;SDS011;11385;50.822;4.324;2022-12-16T10:53:31;43.42;;;24.07;;
22435;SDS011;11385;50.822;4.324;2022-12-16T10:56:13;38.05;;;21.60;;
22435;SDS011;11385;50.822;4.324;2022-12-16T10:58:51;41.02;;;21.52;;
22435;SDS011;11385;50.822;4.324;2022-12-16T11:01:27;40.23;;;21.87;;
22435;SDS011;11385;50.822;4.324;2022-12-16T11:03:59;38.42;;;21.95;;
22435;SDS011;11385;50.822;4.324;2022-12-16T11:06:35;42.62;;;22.98;;
22435;SDS011;11385;50.822;4.324;2022-12-16T11:09:15;38.28;;;22.75;;
22435;SDS011;11385;50.822;4.324;2022-12-16T11:11:54;41.02;;;23.42;;
22435;SDS011;11385;50.822;4.324;2022-12-16T11:14:32;40.98;;;22.93;;
22435;SDS011;11385;50.822;4.324;2022-12-16T11:17:10;39.08;;;22.45;;
22435;SDS011;11385;50.822;4.324;2022-12-16T11:20:04;42.15;;;23.40;;
22435;SDS011;11385;50.822;4.324;2022-12-16T11:25:18;39.90;;;23.42;;
22435;SDS011;11385;50.822;4.324;2022-12-16T11:28:01;39.33;;;23.42;;
22435;SDS011;11385;50.822;4.324;2022-12-16T11:30:32;41.37;;;23.07;;
22435;SDS011;11385;50.822;4.324;2022-12-16T11:33:22;37.98;;;23.80;;
22435;SDS011;11385;50.822;4.324;2022-12-16T11:36:00;44.13;;;23.75;;
22435;SDS011;11385;50.822;4.324;2022-12-16T11:38:48;40.98;;;21.62;;
22435;SDS011;11385;50.822;4.324;2022-12-16T11:41:25;43.35;;;23.92;;
22435;SDS011;11385;50.822;4.324;2022-12-16T11:44:00;43.42;;;23.42;;
22435;SDS011;11385;50.822;4.324;2022-12-16T11:46:34;40.03;;;23.67;;
22435;SDS011;11385;50.822;4.324;2022-12-16T11:49:07;40.52;;;23.77;;
22435;SDS011;11385;50.822;4.324;2022-12-16T11:51:59;38.65;;;22.50;;
22435;SDS011;11385;50.822;4.324;2022-12-16T11:54:34;40.98;;;24.30;;
22435;SDS011;11385;50.822;4.324;2022-12-16T11:57:15;41.90;;;23.50;;
22435;SDS011;11385;50.822;4.324;2022-12-16T11:59:51;37.80;;;21.45;;
22435;SDS011;11385;50.822;4.324;2022-12-16T12:02:33;36.40;;;21.80;;
22435;SDS011;11385;50.822;4.324;2022-12-16T12:05:11;37.05;;;21.55;;
22435;SDS011;11385;50.822;4.324;2022-12-16T12:11:34;33.48;;;19.65;;
22435;SDS011;11385;50.822;4.324;2022-12-16T12:13:34;30.90;;;18.80;;
22435;SDS011;11385;50.822;4.324;2022-12-16T12:22:09;35.73;;;19.27;;
22435;SDS011;11385;50.822;4.324;2022-12-16T12:24:48;36.85;;;19.35;;
22435;SDS011;11385;50.822;4.324;2022-12-16T12:27:31;35.45;;;19.02;;
22435;SDS011;11385;50.822;4.324;2022-12-16T12:30:09;28.38;;;17.90;;
22435;SDS011;11385;50.822;4.324;2022-12-16T12:32:48;29.05;;;16.17;;
22435;SDS011;11385;50.822;4.324;2022-12-16T12:35:47;28.90;;;16.30;;
22435;SDS011;11385;50.822;4.324;2022-12-16T12:38:30;22.20;;;14.43;;
22435;SDS011;11385;50.822;4.324;2022-12-16T12:41:17;25.97;;;14.33;;
22435;SDS011;11385;50.822;4.324;2022-12-16T12:43:57;26.82;;;15.20;;
22435;SDS011;11385;50.822;4.324;2022-12-16T12:46:32;24.23;;;14.18;;
22435;SDS011;11385;50.822;4.324;2022-12-16T12:49:10;25.17;;;14.20;;
22435;SDS011;11385;50.822;4.324;2022-12-16T12:51:50;24.18;;;13.72;;
22435;SDS011;11385;50.822;4.324;2022-12-16T12:54:29;20.30;;;12.58;;
22435;SDS011;11385;50.822;4.324;2022-12-16T12:57:03;21.23;;;12.50;;
22435;SDS011;11385;50.822;4.324;2022-12-16T12:59:44;20.68;;;12.37;;
22435;SDS011;11385;50.822;4.324;2022-12-16T13:05:29;23.10;;;12.43;;
22435;SDS011;11385;50.822;4.324;2022-12-16T13:10:49;22.05;;;11.83;;
22435;SDS011;11385;50.822;4.324;2022-12-16T13:13:29;18.17;;;11.05;;
22435;SDS011;11385;50.822;4.324;2022-12-16T13:16:08;20.37;;;10.23;;
22435;SDS011;11385;50.822;4.324;2022-12-16T13:18:41;18.30;;;10.80;;
22435;SDS011;11385;50.822;4.324;2022-12-16T13:21:48;20.88;;;11.75;;
22435;SDS011;11385;50.822;4.324;2022-12-16T13:24:19;22.58;;;10.88;;
22435;SDS011;11385;50.822;4.324;2022-12-16T13:27:12;18.55;;;11.70;;
22435;SDS011;11385;50.822;4.324;2022-12-16T13:29:59;22.00;;;12.50;;
22435;SDS011;11385;50.822;4.324;2022-12-16T13:32:22;20.43;;;11.83;;
22435;SDS011;11385;50.822;4.324;2022-12-16T13:34:58;23.05;;;11.97;;
22435;SDS011;11385;50.822;4.324;2022-12-16T13:37:32;20.82;;;11.78;;
22435;SDS011;11385;50.822;4.324;2022-12-16T13:40:21;19.17;;;11.65;;
22435;SDS011;11385;50.822;4.324;2022-12-16T13:42:54;21.07;;;11.95;;
22435;SDS011;11385;50.822;4.324;2022-12-16T13:45:33;20.50;;;12.98;;
22435;SDS011;11385;50.822;4.324;2022-12-16T13:48:24;19.85;;;12.63;;
22435;SDS011;11385;50.822;4.324;2022-12-16T13:50:44;22.67;;;12.78;;
22435;SDS011;11385;50.822;4.324;2022-12-16T13:53:18;20.60;;;12.82;;
22435;SDS011;11385;50.822;4.324;2022-12-16T13:55:54;21.30;;;12.88;;
22435;SDS011;11385;50.822;4.324;2022-12-16T13:58:35;24.45;;;13.03;;
22435;SDS011;11385;50.822;4.324;2022-12-16T14:01:11;22.60;;;12.35;;
22435;SDS011;11385;50.822;4.324;2022-12-16T14:03:47;17.73;;;11.63;;
22435;SDS011;11385;50.822;4.324;2022-12-16T14:06:22;22.77;;;11.73;;
22435;SDS011;11385;50.822;4.324;2022-12-16T14:08:56;17.40;;;9.90;;
22435;SDS011;11385;50.822;4.324;2022-12-16T14:11:45;19.15;;;11.38;;
22435;SDS011;11385;50.822;4.324;2022-12-16T14:14:13;19.42;;;10.72;;
22435;SDS011;11385;50.822;4.324;2022-12-16T14:16:58;19.80;;;11.25;;
22435;SDS011;11385;50.822;4.324;2022-12-16T14:22:26;19.52;;;11.30;;
22435;SDS011;11385;50.822;4.324;2022-12-16T14:25:19;17.70;;;10.15;;
22435;SDS011;11385;50.822;4.324;2022-12-16T14:27:53;17.65;;;11.18;;
22435;SDS011;11385;50.822;4.324;2022-12-16T14:30:25;15.48;;;10.23;;
22435;SDS011;11385;50.822;4.324;2022-12-16T14:32:58;18.62;;;11.20;;
22435;SDS011;11385;50.822;4.324;2022-12-16T14:35:31;19.57;;;10.80;;
22435;SDS011;11385;50.822;4.324;2022-12-16T14:41:00;23.40;;;10.40;;
22435;SDS011;11385;50.822;4.324;2022-12-16T14:43:32;19.73;;;11.50;;
22435;SDS011;11385;50.822;4.324;2022-12-16T14:46:05;18.12;;;11.30;;
22435;SDS011;11385;50.822;4.324;2022-12-16T14:48:39;19.80;;;11.33;;
22435;SDS011;11385;50.822;4.324;2022-12-16T14:51:35;22.15;;;10.98;;
22435;SDS011;11385;50.822;4.324;2022-12-16T14:54:15;18.50;;;11.48;;
22435;SDS011;11385;50.822;4.324;2022-12-16T14:56:49;19.12;;;11.70;;
22435;SDS011;11385;50.822;4.324;2022-12-16T14:59:22;19.98;;;11.10;;
22435;SDS011;11385;50.822;4.324;2022-12-16T15:01:55;22.13;;;12.35;;
22435;SDS011;11385;50.822;4.324;2022-12-16T15:04:31;24.47;;;12.03;;
22435;SDS011;11385;50.822;4.324;2022-12-16T15:07:04;24.37;;;12.60;;
22435;SDS011;11385;50.822;4.324;2022-12-16T15:09:40;22.58;;;11.65;;
22435;SDS011;11385;50.822;4.324;2022-12-16T15:12:18;19.42;;;12.15;;
22435;SDS011;11385;50.822;4.324;2022-12-16T15:14:52;21.27;;;12.85;;
22435;SDS011;11385;50.822;4.324;2022-12-16T15:17:27;23.25;;;12.10;;
22435;SDS011;11385;50.822;4.324;2022-12-16T15:20:03;21.30;;;12.37;;
22435;SDS011;11385;50.822;4.324;2022-12-16T15:22:37;24.57;;;14.47;;
22435;SDS011;11385;50.822;4.324;2022-12-16T15:25:16;27.37;;;14.05;;
22435;SDS011;11385;50.822;4.324;2022-12-16T15:27:52;22.00;;;14.23;;
22435;SDS011;11385;50.822;4.324;2022-12-16T15:33:09;23.65;;;13.60;;
22435;SDS011;11385;50.822;4.324;2022-12-16T15:35:42;23.52;;;14.75;;
22435;SDS011;11385;50.822;4.324;2022-12-16T15:38:17;29.10;;;15.20;;
22435;SDS011;11385;50.822;4.324;2022-12-16T15:40:51;23.27;;;14.63;;
22435;SDS011;11385;50.822;4.324;2022-12-16T15:43:25;23.47;;;14.83;;
22435;SDS011;11385;50.822;4.324;2022-12-16T15:46:00;31.93;;;18.75;;
22435;SDS011;11385;50.822;4.324;2022-12-16T15:48:32;39.78;;;22.02;;